Oscar Dyson — WTEP — position and weather

sailwx.info

Track history (hours):
 
Tides and Currents Weather Stations Pressure Air Temp Water Temp Dewpoint Dewpoint Depression Visibility Wind Speed Wind Dir Waves Ship Positions

Oceanographic research ship Oscar Dyson (USA)

Ship's website: http://www.moc.noaa.gov/od/

Detailed information on ship capabilities available from University of Delaware's Ocean Information Center and ARCUS's ALIAS (Arctic Logistics Information and Support) project.

Last reported at 2015-Mar-03 04:00 UTC. Time now 2015-Mar-03 04:47 UTC.
Position N 57°42' W 152°24'.

Type: Ship. MMSI: 369959000.

Wind from 070 at 3 knots

Barometer 1008.4 mb
Air temperature 6.1 ° C
Dewpoint 6.2 ° C
Water temperature 5.3 ° C

Date/timePositionNaut miles runAvg speedWind from/ knotsBaromVisibWave heightAir tempDewpointWater temp
2015-Mar-03 04:00N 57°42' W 152°24'0 0.0 070 / 31008.4 6.1 6.2 5.3
2015-Mar-03 03:00N 57°42' W 152°24'14 6.8 090 / 141008.4 5.8 5.8 5.1
2015-Mar-03 01:00N 57°54' W 152°12'9 8.7 090 / 261009.5 5.8 5.7 5.3
2015-Mar-03 00:00N 58°00' W 152°24'11 5.6 080 / 271010.8 5.6 5.6 5.4
2015-Mar-02 22:00N 57°54' W 152°42'2311.5 070 / 281012.0 5.8 5.3 5.4
2015-Mar-02 20:00N 58°00' W 153°24'10 9.5 090 / 231013.1 6.3 4.6 5.9
2015-Mar-02 19:00N 58°00' W 153°42'1414.0 040 / 251014.5 5.5 4.6 5.9
2015-Mar-02 18:00N 58°06' W 154°06'7 6.8 030 / 311016.5 4.9 4.1 4.8
2015-Mar-02 17:00N 58°00' W 154°12'3 3.2 030 / 231017.0 4.8 4.2 4.2
2015-Mar-02 16:00N 58°00' W 154°18'6 6.4 030 / 281018.0 4.0 3.4 3.9
2015-Mar-02 15:00N 58°00' W 154°06'3 3.2 040 / 261019.8 4.6 4.0 5.1
2015-Mar-02 14:00N 58°00' W 154°12'11 2.8 040 / 271020.3 4.2 3.3 4.6
2015-Mar-02 10:00N 58°06' W 153°54'1111.2 050 / 151025.8 3.8 1.4 5.8
2015-Mar-02 09:00N 58°12' W 153°36'2613.0 070 / 171026.5 4.0 2.2 5.8
2015-Mar-02 07:00N 58°30' W 153°00'2512.5 090 / 151028.7 3.5 1.9 5.8
2015-Mar-02 05:00N 58°42' W 152°18'1413.8 150 / 111030.2 3.2 6.1
2015-Mar-02 04:00N 58°48' W 151°54'1111.1 100 / 111030.3 3.9 1.9 5.9
2015-Mar-02 03:00N 58°54' W 151°36'2211.0 120 / 91030.6 4.2 2.1 5.9
2015-Mar-02 01:00N 59°06' W 151°00'7 6.7 090 / 111031.4 5.3 2.9 5.6
2015-Mar-02 00:00N 59°12' W 151°06'0 0.0 160 / 81031.5 5.3 3.4 5.3
2015-Mar-01 23:00N 59°12' W 151°06'3 3.1 120 / 91031.5 5.6 3.3 4.8
2015-Mar-01 22:00N 59°12' W 151°00'3 3.1 220 / 61031.6 5.8 3.2 5.6
2015-Mar-01 21:00N 59°12' W 150°54'9 4.3 060 / 51031.8 4.3 2.0 5.4
2015-Mar-01 19:00N 59°18' W 150°42'13 6.7 030 / 71031.1 4.3 2.2 5.4
2015-Mar-01 17:00N 59°30' W 150°30'0 0.0 360 / 41030.6 0.3-0.7 4.7
2015-Mar-01 16:00N 59°30' W 150°30'0 0.0 010 / 81030.3 1.8 4.7
2015-Mar-01 15:00N 59°30' W 150°30'3 3.0 100 / 21030.6 -0.3-0.4 3.9
2015-Mar-01 14:00N 59°30' W 150°36'9 8.6 360 / 61030.1 1.9 1.1 4.2
2015-Mar-01 13:00N 59°24' W 150°24'0 0.0 030 / 41030.3 2.6 1.7 4.7
2015-Mar-01 12:00N 59°24' W 150°24'3 3.1 010 / 31030.3 2.6 2.5 5.3
2015-Mar-01 11:00N 59°24' W 150°30'3 3.1 030 / 41029.8 3.5 2.6 4.5
2015-Mar-01 10:00N 59°24' W 150°36'7404.1 340 / 61029.3 3.8 2.8 5.4
2015-Mar-01 09:59N 59°18' W 150°30'3 3.1 350 / 61029.4 4.2 5.5
2015-Mar-01 09:00N 59°18' W 150°36'0 0.0 340 / 51028.7 4.2 2.4 5.6
2015-Mar-01 08:59N 59°18' W 150°36'9 9.3 320 / 81028.9 3.6 5.6
2015-Mar-01 08:00N 59°18' W 150°18'3183.8 080 / 31027.8 4.7 2.4 5.6
2015-Mar-01 07:59N 59°18' W 150°12'1313.7 180 / 11028.1 4.7 5.6
2015-Mar-01 07:00N 59°30' W 150°00'0 0.0 120 / 41027.6 4.5 2.7 5.5
2015-Mar-01 06:59N 59°30' W 150°00'9 8.5 160 / 21027.9 4.5 5.5
2015-Mar-01 05:59N 59°36' W 149°48'0 0.0 360 / 31027.4 3.9 5.0
2015-Mar-01 04:00N 59°36' W 149°48'7 6.7 210 / 21025.8 4.0 2.5 5.1
2015-Mar-01 03:00N 59°30' W 149°54'9 8.5 060 / 61025.6 3.8 2.3 5.1
2015-Mar-01 02:00N 59°36' W 149°42'7 6.7 030 / 61025.6 3.1 1.9 4.9
2015-Mar-01 01:00N 59°42' W 149°36'6 6.1 340 / 71025.8 3.3 1.6 5.4
2015-Mar-01 00:00N 59°42' W 149°24'2412.0 310 / 71025.9 3.9 0.6 5.6
2015-Feb-28 22:00N 60°06' W 149°24'0 0.0 170 / 91025.7 4.4-0.8 5.3
2015-Feb-28 21:59N 60°06' W 149°24'0 0.0 170 / 91026.0 4.3 5.3
2015-Feb-28 21:00N 60°06' W 149°24'0 0.0 170 / 21026.1 3.4-0.4 5.0
2015-Feb-28 20:59N 60°06' W 149°24'12 6.1 160 / 31026.3 3.5 5.1
2015-Feb-28 19:00N 59°54' W 149°24'6360.0 290 / 61026.2 3.6-0.4 4.8
2015-Feb-28 18:59N 59°48' W 149°24'6 6.1 280 / 91026.3 3.4 4.9
2015-Feb-28 18:00N 59°42' W 149°24'9 9.1 070 / 91025.9 3.8 1.5 5.8
2015-Feb-28 17:00N 59°42' W 149°42'3181.6 350 / 81026.3 4.0 0.8 5.4
2015-Feb-28 16:59N 59°42' W 149°36'7 6.8 360 / 71026.4 3.9 5.5
2015-Feb-28 16:00N 59°48' W 149°42'6360.0 320 / 71026.9 3.1 0.4 3.9
2015-Feb-28 15:59N 59°42' W 149°42'6 3.1 340 / 61027.0 3.4 3.4
2015-Feb-28 14:00N 59°42' W 149°30'6360.0 050 / 101027.2 4.2 0.6 5.5
2015-Feb-28 13:59N 59°36' W 149°30'1413.8 050 / 111027.3 4.2 5.4
2015-Feb-28 13:00N 59°42' W 149°06'1313.5 070 / 121027.6 4.2 0.4 5.8
2015-Feb-28 12:00N 59°48' W 148°42'0 0.0 070 / 141027.9 3.7 0.1 5.6
2015-Feb-28 11:59N 59°48' W 148°42'1111.0 070 / 141028.0 3.8 5.6
2015-Feb-28 11:00N 59°54' W 148°24'3180.5 050 / 111028.2 3.4-0.6 5.6
2015-Feb-28 10:59N 59°54' W 148°18'7 3.4 040 / 131028.3 3.4 5.6
2015-Feb-28 09:00N 60°00' W 148°24'3180.0 010 / 71029.1 3.3-0.9 5.4
2015-Feb-28 08:59N 60°00' W 148°18'0 0.0 010 / 81029.4 3.0 5.4
2015-Feb-28 07:59N 60°00' W 148°18'6 6.1 360 / 81029.5 2.9 5.4
2015-Feb-28 07:00N 60°06' W 148°18'0 0.0 010 / 21029.6 2.8-2.4 5.5
2015-Feb-28 06:59N 60°06' W 148°18'0 0.0 030 / 21030.0 2.8 5.5
2015-Feb-28 06:00N 60°06' W 148°18'0 0.0 070 / 21029.5 2.5-3.2 5.4
2015-Feb-28 05:59N 60°06' W 148°18'3 3.0 240 / 31029.7 2.5 5.4
2015-Feb-28 05:00N 60°06' W 148°24'3179.5 030 / 91029.5 2.6-4.0 5.5
2015-Feb-28 04:59N 60°06' W 148°18'7 6.8 360 / 71029.7 2.5 5.5
2015-Feb-28 04:00N 60°00' W 148°24'3180.0 010 / 51029.5 3.4-2.8 5.4
2015-Feb-28 03:59N 60°00' W 148°18'6 6.1 010 / 71029.9 3.5 5.4
2015-Feb-28 03:00N 59°54' W 148°18'0 0.0 040 / 71029.4 3.9 0.1 5.6
2015-Feb-28 02:59N 59°54' W 148°18'6 6.1 040 / 61029.6 3.8 5.6
2015-Feb-28 02:00N 59°54' W 148°30'1212.0 030 / 61029.5 4.0-0.1 5.5
2015-Feb-28 01:00N 59°54' W 148°54'3180.5 120 / 41030.2 3.7 0.2 5.6
2015-Feb-28 00:59N 59°54' W 148°48'1111.0 070 / 41030.4 3.8 5.5
2015-Feb-28 00:00N 60°00' W 149°06'0 0.0 220 / 41030.9 3.6-1.3 5.0
2015-Feb-27 23:00N 60°00' W 149°06'3180.0 220 / 31031.0 3.0-1.7 4.9
2015-Feb-27 22:59N 60°00' W 149°00'7 6.8 270 / 31031.3 3.3 4.9
2015-Feb-27 22:00N 59°54' W 149°06'1313.2 190 / 31031.1 3.4-1.5 5.2
2015-Feb-27 20:59N 59°42' W 149°18'7 6.8 360 / 41030.9 3.1 5.6
2015-Feb-27 20:00N 59°48' W 149°12'6360.0 020 / 41030.6 3.6-0.4 5.6
2015-Feb-27 19:59N 59°42' W 149°12'9 8.7 010 / 71030.8 3.3 5.8
2015-Feb-27 19:00N 59°48' W 149°24'0 0.0 1030.6 1.9-3.5 5.3
2015-Feb-27 18:59N 59°48' W 149°24'6 6.1 010 / 131030.7 2.0 5.4
2015-Feb-27 18:00N 59°54' W 149°24'0 0.0 030 / 141030.2 0.7-4.9 4.8
2015-Feb-27 17:59N 59°54' W 149°24'0 0.0 020 / 181030.4 0.9 4.9
2015-Feb-27 17:00N 59°54' W 149°24'0 0.0 040 / 101030.7 1.3-5.9 5.1
2015-Feb-27 15:59N 59°54' W 149°24'6 6.1 040 / 151030.6 1.0 4.8
2015-Feb-27 15:00N 60°00' W 149°24'3180.0 340 / 131030.4 0.2-5.9 5.7
2015-Feb-27 14:59N 60°00' W 149°18'7 3.4 350 / 141030.4 0.1 5.6
2015-Feb-27 13:00N 60°06' W 149°24'6360.0 360 / 171031.1 0.3-6.2 5.2
2015-Feb-27 12:59N 60°00' W 149°24'6 3.0 350 / 181031.3 0.7 5.1
2015-Feb-27 11:00N 59°54' W 149°24'2512.4 040 / 101031.2 3.1 5.0
2015-Feb-27 09:00N 59°30' W 149°36'0 0.0 040 / 101030.7 4.5-1.6 5.5
2015-Feb-27 08:59N 59°30' W 149°36'1413.8 040 / 111030.9 4.4 5.5
2015-Feb-27 08:00N 59°24' W 150°00'3183.3 090 / 41030.9 4.4 1.6 5.8
2015-Feb-27 07:59N 59°24' W 149°54'2713.8 100 / 41031.0 4.5 5.8
2015-Feb-27 06:00N 59°12' W 150°42'7404.6 270 / 101030.8 4.7-1.3 5.7
2015-Feb-27 05:59N 59°06' W 150°36'1515.7 260 / 61031.0 4.8 5.8
2015-Feb-27 05:00N 59°06' W 151°06'7404.8 270 / 211030.7 5.0-1.4 5.9
2015-Feb-27 04:59N 59°00' W 151°00'1212.6 270 / 181031.1 5.4 5.9
2015-Feb-27 04:00N 59°00' W 151°24'3185.4 270 / 241031.6 3.9-1.1 6.0
2015-Feb-27 03:59N 59°00' W 151°18'1716.9 280 / 251031.5 4.0 5.9
2015-Feb-27 03:00N 58°54' W 151°48'3186.0 300 / 221032.7 3.4-1.4 6.3
2015-Feb-27 02:59N 58°54' W 151°42'1414.0 300 / 221032.8 3.4 6.2
2015-Feb-27 02:00N 58°48' W 152°06'1413.8 290 / 181033.7 4.0-0.4 6.3
2015-Feb-27 01:00N 58°42' W 152°30'1111.1 300 / 151034.4 4.8-1.0 6.3
2015-Feb-27 00:00N 58°36' W 152°48'1515.2 290 / 71034.7 4.0 0.9 6.1
2015-Feb-26 23:00N 58°24' W 153°06'3188.6 250 / 111035.0 4.9 1.7 5.8
2015-Feb-26 22:59N 58°24' W 153°00'1515.5 250 / 101035.1 4.5 6.0
2015-Feb-26 22:00N 58°12' W 153°18'3189.7 250 / 101035.0 4.3 0.8 5.9
2015-Feb-26 21:59N 58°12' W 153°12'1515.6 240 / 101035.2 4.3 5.8
2015-Feb-26 21:00N 58°00' W 153°30'6 6.4 260 / 111035.2 4.3 0.5 5.6
2015-Feb-26 20:00N 58°00' W 153°42'1111.3 240 / 141035.1 4.1 0.5 5.9
2015-Feb-26 19:00N 58°06' W 154°00'9 8.7 260 / 41035.0 2.8 0.1 3.3
2015-Feb-26 18:00N 58°00' W 154°12'0 0.0 310 / 21034.7 2.2 3.5
2015-Feb-26 16:00N 58°00' W 154°12'0 0.0 270 / 41034.0 2.4 3.5
2015-Feb-26 15:00N 58°00' W 154°12'22 4.4 240 / 61033.6 2.6 1.0 3.5
2015-Feb-26 10:00N 57°42' W 154°36'26 6.5 240 / 41033.8 3.3 0.5 4.8
2015-Feb-26 06:00N 57°18' W 154°54'10 9.7 340 / 161032.3 3.6 1.0 4.9
2015-Feb-26 05:00N 57°18' W 155°12'1414.3 350 / 121032.2 3.5 1.0 5.3
2015-Feb-26 04:00N 57°24' W 155°36'3 3.2 360 / 51031.7 3.8 0.8 5.4
2015-Feb-26 03:00N 57°24' W 155°30'0 0.0 010 / 81031.3 3.6 0.8 5.5
2015-Feb-26 02:00N 57°24' W 155°30'0 0.0 010 / 101031.3 3.5 0.6 5.1
2015-Feb-26 01:00N 57°24' W 155°30'3 3.2 020 / 71031.3 5.4 2.9 5.6
2015-Feb-26 00:00N 57°24' W 155°36'0 0.0 010 / 111030.8 4.0 0.9 5.2
2015-Feb-25 23:00N 57°24' W 155°36'1413.6 050 / 161030.0 4.5 0.4 5.4
2015-Feb-25 22:00N 57°12' W 155°24'1413.7 040 / 241028.8 4.8 2.4 5.5
2015-Feb-25 21:00N 57°00' W 155°12'7 6.8 030 / 201027.6 5.3 2.4 5.5
2015-Feb-25 20:00N 56°54' W 155°06'1211.5 030 / 181026.9 5.4 2.5 5.3
2015-Feb-25 19:00N 57°00' W 155°24'1111.5 030 / 251026.5 5.2 2.5 5.4
2015-Feb-25 18:00N 57°06' W 155°42'9 4.4 030 / 321025.4 5.2 2.0 5.6
2015-Feb-25 16:00N 57°00' W 155°54'22 7.4 040 / 301024.2 5.3 1.9 5.5
2015-Feb-25 13:00N 56°42' W 155°30'7 6.8 030 / 321021.2 5.0 4.3 5.6
2015-Feb-25 12:00N 56°36' W 155°24'0 0.0 010 / 291020.6 5.2 3.9 5.5
2015-Feb-25 11:58N 56°36' W 155°24'13 6.6 010 / 311012.7 5.2 5.5
2015-Feb-25 09:57N 56°36' W 155°48'6 6.3 010 / 341012.7 5.1 5.6
2015-Feb-25 09:00N 56°42' W 155°48'6120.0 030 / 321019.3 5.1 3.6 5.6
2015-Feb-25 08:57N 56°36' W 155°48'6 3.1 030 / 341012.7 5.2 5.6
2015-Feb-25 07:00N 56°42' W 155°48'7136.9 030 / 271018.7 5.2 3.7 5.8
2015-Feb-25 06:57N 56°36' W 155°42'3 3.5 030 / 241012.7 5.2 5.6
2015-Feb-25 06:00N 56°36' W 155°48'0 0.0 040 / 281018.4 5.3 3.4 5.6
2015-Feb-25 05:57N 56°36' W 155°48'6 6.3 030 / 301012.7 5.2 5.8
2015-Feb-25 05:00N 56°42' W 155°48'7136.9 020 / 301017.9 5.2 3.3 5.6
2015-Feb-25 04:57N 56°36' W 155°42'2613.3 020 / 291012.7 5.2 5.6
2015-Feb-25 03:00N 56°48' W 156°24'0 0.0 030 / 231019.5 4.9 0.1 5.3
2015-Feb-25 02:57N 56°48' W 156°24'7 7.2 030 / 291012.7 4.9 5.3
2015-Feb-25 02:00N 56°42' W 156°30'365.9 030 / 241019.2 4.7 0.5 5.1
2015-Feb-25 01:57N 56°42' W 156°24'1414.4 020 / 251012.7 4.7 5.1
2015-Feb-25 01:00N 56°30' W 156°36'0 0.0 030 / 291019.2 4.5 0.9 5.1
2015-Feb-25 00:58N 56°30' W 156°36'9 9.3 030 / 281012.7 4.5 5.1
2015-Feb-25 00:00N 56°24' W 156°48'1211.9 030 / 281019.1 4.3 0.6 5.3
2015-Feb-24 22:57N 56°12' W 156°54'1616.5 030 / 271012.7 4.4 5.4
2015-Feb-24 22:00N 56°00' W 157°12'367.1 030 / 231019.8 4.5-0.5 5.1
2015-Feb-24 21:57N 56°00' W 157°06'1212.3 030 / 261012.7 4.5 5.2
2015-Feb-24 21:00N 55°54' W 157°24'0 0.0 030 / 231019.7 4.6 1.2 5.4
2015-Feb-24 20:57N 55°54' W 157°24'1616.5 030 / 251012.7 4.5 5.4
2015-Feb-24 20:00N 55°42' W 157°42'367.6 050 / 211019.5 4.8 1.0 5.6
2015-Feb-24 19:57N 55°42' W 157°36'1212.4 050 / 221012.7 4.8 5.6
2015-Feb-24 19:00N 55°36' W 157°54'3101.7 050 / 211019.2 4.9 1.0 5.6
2015-Feb-24 18:58N 55°36' W 157°48'1615.7 050 / 231012.7 5.0 5.6
2015-Feb-24 17:58N 55°24' W 158°06'2311.5 040 / 211012.7 4.7 5.5
2015-Feb-24 16:00N 55°06' W 158°30'0 0.0 050 / 211018.7 4.2 2.0 5.4
2015-Feb-24 15:58N 55°06' W 158°30'9 9.4 040 / 211012.7 4.1 5.5
2015-Feb-24 15:00N 55°00' W 158°42'7207.6 040 / 231018.7 4.7 0.4 5.4
2015-Feb-24 14:58N 54°54' W 158°36'2512.7 050 / 231012.7 4.8 5.5
2015-Feb-24 13:00N 55°18' W 158°24'0 0.0 060 / 151020.7 4.3-0.6 5.4
2015-Feb-24 12:58N 55°18' W 158°24'9 4.6 050 / 151012.7 4.3 5.4
2015-Feb-24 11:00N 55°12' W 158°36'3 3.4 070 / 131012.7 4.3 5.5
2015-Feb-24 10:00N 55°12' W 158°42'6 6.0 090 / 131022.6 4.2-1.4 5.5
2015-Feb-24 09:00N 55°06' W 158°42'12 6.0 110 / 131012.7 4.2-1.5 5.4
2015-Feb-24 07:00N 55°18' W 158°42'7 6.9 100 / 81012.7 4.2-1.0 5.5
2015-Feb-24 06:00N 55°24' W 158°36'7 6.8 110 / 111012.7 4.2 0.2 5.5
2015-Feb-24 05:00N 55°24' W 158°48'1413.8 130 / 71012.7 4.2 5.5
2015-Feb-24 04:00N 55°12' W 159°00'3 3.4 160 / 61012.7 4.1 0.4 5.4
2015-Feb-24 03:00N 55°12' W 159°06'7 6.9 140 / 51012.7 4.3 5.4
2015-Feb-24 02:00N 55°18' W 159°00'0 0.0 170 / 61012.7 4.6 0.3 5.5
2015-Feb-24 01:00N 55°18' W 159°00'1212.0 190 / 51012.7 4.3 5.5
2015-Feb-24 00:00N 55°30' W 159°00'1413.8 230 / 41012.7 4.4-0.7 5.7
2015-Feb-23 23:00N 55°18' W 159°12'7 6.8 230 / 51012.7 4.7 0.4 5.4
2015-Feb-23 22:00N 55°18' W 159°24'9 9.1 230 / 31012.7 4.6 5.4
2015-Feb-23 21:00N 55°24' W 159°12'7 6.8 220 / 51012.7 4.5-0.2 5.4
2015-Feb-23 20:00N 55°24' W 159°24'9 9.1 200 / 71012.7 4.9 5.1
2015-Feb-23 19:00N 55°18' W 159°36'0 0.0 190 / 51019.1 4.7 1.2 5.3
2015-Feb-23 18:00N 55°18' W 159°36'6 6.0 270 / 41018.3 2.8-0.2 5.3
2015-Feb-23 17:00N 55°12' W 159°36'7 6.9 230 / 91012.7 3.6-0.9 5.3
2015-Feb-23 16:00N 55°18' W 159°42'1212.0 230 / 121012.7 2.9-0.0 5.3
2015-Feb-23 15:00N 55°30' W 159°42'1413.8 240 / 141015.8 3.6-0.0 5.3
2015-Feb-23 14:00N 55°18' W 159°54'7 6.9 230 / 141012.7 3.3 0.4 5.4
2015-Feb-23 13:00N 55°24' W 160°00'1413.8 260 / 91012.7 2.6 0.6 5.4
2015-Feb-23 12:00N 55°36' W 159°48'2713.3 230 / 91012.7 2.3 0.8 5.2
2015-Feb-23 10:00N 55°24' W 160°30'18 9.0 230 / 151012.3 2.9 0.7 5.1
2015-Feb-23 08:00N 55°18' W 161°00'1413.7 240 / 121012.7 3.4 5.1
2015-Feb-23 07:00N 55°18' W 161°24'1211.9 200 / 81012.7 2.5 0.2 4.4
2015-Feb-23 06:00N 55°12' W 161°42'9 9.1 190 / 131012.7 2.6-0.5 4.3
2015-Feb-23 05:00N 55°06' W 161°54'7 6.9 200 / 111008.4 2.7-0.0 4.3
2015-Feb-23 04:00N 55°00' W 162°00'1212.0 240 / 101012.7 2.1-0.1 4.4
2015-Feb-23 03:00N 54°54' W 162°18'1212.0 200 / 201012.7 2.9 0.2 3.8
2015-Feb-23 02:00N 54°48' W 162°36'9 9.2 210 / 201006.5 3.4 0.6 4.9
2015-Feb-23 01:00N 54°42' W 162°48'0 0.0 210 / 171012.7 3.9-1.7 4.3
2015-Feb-23 00:00N 54°42' W 162°48'7 6.9 210 / 221012.7 4.0 4.9
2015-Feb-22 23:00N 54°42' W 162°36'3 3.5 220 / 221012.7 4.2 0.8 5.0
2015-Feb-22 22:00N 54°42' W 162°42'0 0.0 240 / 211012.7 3.3-0.0 4.8
2015-Feb-22 21:00N 54°42' W 162°42'3 3.5 230 / 221012.7 4.5 0.1 5.0
2015-Feb-22 20:00N 54°42' W 162°48'7 6.9 220 / 261012.7 4.2-0.0 4.5
2015-Feb-22 19:00N 54°36' W 162°42'7 7.0 210 / 301012.7 4.0 0.4 4.9
2015-Feb-22 18:00N 54°36' W 162°30'6 6.0 220 / 221012.7 5.0 1.7 5.4
2015-Feb-22 17:00N 54°42' W 162°30'7 6.9 220 / 241000.7 4.5 1.3 5.3
2015-Feb-22 16:00N 54°36' W 162°36'7 7.0 210 / 191012.7 3.6 1.4 5.1
2015-Feb-22 15:00N 54°36' W 162°24'1212.0 200 / 21999.2 4.3 2.2 5.3
2015-Feb-22 14:00N 54°30' W 162°42'1010.5 200 / 231012.7 4.3 2.2 5.3
2015-Feb-22 13:00N 54°30' W 162°24'9 3.1 210 / 23998.1 4.9 2.2 5.5
2015-Feb-22 10:00N 54°24' W 162°36'9 9.2 170 / 201012.7 4.9 4.6 5.5
2015-Feb-22 09:00N 54°30' W 162°24'7 3.5 160 / 23996.6 4.9 3.6 5.5
2015-Feb-22 07:00N 54°30' W 162°12'1413.9 150 / 27996.5 4.7 3.3 5.6
2015-Feb-22 06:00N 54°30' W 161°48'2412.0 150 / 251012.7 5.0 5.5
2015-Feb-22 04:00N 54°42' W 161°12'1212.0 140 / 211012.7 5.3 5.1 5.6
2015-Feb-22 03:00N 54°48' W 160°54'2412.0 140 / 211012.7 5.3 5.2 5.7
2015-Feb-22 01:00N 55°00' W 160°18'0 0.0 140 / 201012.7 6.0 5.2 5.5
2015-Feb-22 00:00N 55°00' W 160°18'0 0.0 150 / 161012.7 5.8 5.4 5.5
2015-Feb-21 23:01N 55°00' W 160°18'0 0.0 150 / 201012.7 6.1 5.5
2015-Feb-21 23:00N 55°00' W 160°18'3 3.4 160 / 18998.4 6.3 4.8 5.5
2015-Feb-21 22:00N 55°00' W 160°24'7 6.9 150 / 201012.7 6.0 4.7 5.5
2015-Feb-21 21:00N 55°06' W 160°18'6 6.0 170 / 211012.7 5.0 4.7 5.4
2015-Feb-21 20:00N 55°12' W 160°18'0 0.0 160 / 24997.4 5.1 4.3 5.4
2015-Feb-21 19:00N 55°12' W 160°18'6 6.0 160 / 16997.1 4.7 4.2 5.4
2015-Feb-21 18:00N 55°06' W 160°18'7 6.9 160 / 251012.7 4.5 4.5 5.4
2015-Feb-21 17:00N 55°12' W 160°24'1010.3 170 / 21994.6 5.0 4.6 5.4
2015-Feb-21 16:00N 55°12' W 160°06'0 0.0 170 / 20993.6 5.6 5.6 5.5
2015-Feb-21 15:59N 55°12' W 160°06'7 7.0 160 / 221012.7 5.4 5.5
2015-Feb-21 15:00N 55°18' W 160°12'3204.9 180 / 14992.5 5.5 5.5 5.5
2015-Feb-21 14:59N 55°18' W 160°06'9 9.2 170 / 151012.7 5.7 5.5
2015-Feb-21 14:00N 55°24' W 160°18'7414.1 190 / 20991.2 5.6 5.6 5.5
2015-Feb-21 13:59N 55°18' W 160°12'1212.1 180 / 171012.7 5.9 5.4
2015-Feb-21 13:00N 55°24' W 160°30'3204.4 180 / 18990.1 5.4 5.2 5.4
2015-Feb-21 12:59N 55°24' W 160°24'7 7.0 180 / 181012.7 5.3 5.4
2015-Feb-21 12:00N 55°30' W 160°30'6360.0 160 / 20989.1 5.5 5.5 5.4
2015-Feb-21 11:59N 55°24' W 160°30'0 0.0 160 / 171012.7 5.5 5.3
2015-Feb-21 11:00N 55°24' W 160°30'3 3.4 160 / 21987.8 5.6 5.2 5.4
2015-Feb-21 10:00N 55°24' W 160°24'3204.4 150 / 16986.9 5.8 5.8 5.4
2015-Feb-21 09:59N 55°24' W 160°18'6 6.1 150 / 181012.7 6.0 5.4
2015-Feb-21 09:00N 55°30' W 160°18'6360.0 120 / 16986.1 6.1 6.1 5.4
2015-Feb-21 08:59N 55°24' W 160°18'7 7.0 160 / 151012.7 6.4 5.4
2015-Feb-21 08:00N 55°30' W 160°12'9 9.1 110 / 241012.7 5.7 5.7 5.4
2015-Feb-21 07:00N 55°36' W 160°00'7 6.9 100 / 231012.7 5.7 5.7 5.4
2015-Feb-21 06:00N 55°30' W 160°06'3 3.4 080 / 271012.7 7.1 6.9 5.4
2015-Feb-21 05:00N 55°30' W 160°12'0 0.0 050 / 261012.7 5.3 4.2 5.4
2015-Feb-21 04:00N 55°30' W 160°12'   050 / 211012.7 6.0 3.8 5.4
Track history (hours):
 
Tides and Currents Weather Stations Pressure Air Temp Water Temp Dewpoint Dewpoint Depression Visibility Wind Speed Wind Dir Waves Ship Positions

Oceanographic research ship Oscar Dyson (USA)

Ship's website: http://www.moc.noaa.gov/od/

Detailed information on ship capabilities available from University of Delaware's Ocean Information Center and ARCUS's ALIAS (Arctic Logistics Information and Support) project.

Last reported at 2015-Mar-03 04:00 UTC. Time now 2015-Mar-03 04:47 UTC.
Position N 57°42' W 152°24'.

Type: Ship. MMSI: 369959000.

Wind from 070 at 3 knots

Barometer 1008.4 mb
Air temperature 6.1 ° C
Dewpoint 6.2 ° C
Water temperature 5.3 ° C

Date/timePositionNaut miles runAvg speedWind from/ knotsBaromVisibWave heightAir tempDewpointWater temp
2015-Mar-03 04:00N 57°42' W 152°24'0 0.0 070 / 31008.4 6.1 6.2 5.3
2015-Mar-03 03:00N 57°42' W 152°24'14 6.8 090 / 141008.4 5.8 5.8 5.1
2015-Mar-03 01:00N 57°54' W 152°12'9 8.7 090 / 261009.5 5.8 5.7 5.3
2015-Mar-03 00:00N 58°00' W 152°24'11 5.6 080 / 271010.8 5.6 5.6 5.4
2015-Mar-02 22:00N 57°54' W 152°42'2311.5 070 / 281012.0 5.8 5.3 5.4
2015-Mar-02 20:00N 58°00' W 153°24'10 9.5 090 / 231013.1 6.3 4.6 5.9
2015-Mar-02 19:00N 58°00' W 153°42'1414.0 040 / 251014.5 5.5 4.6 5.9
2015-Mar-02 18:00N 58°06' W 154°06'7 6.8 030 / 311016.5 4.9 4.1 4.8
2015-Mar-02 17:00N 58°00' W 154°12'3 3.2 030 / 231017.0 4.8 4.2 4.2
2015-Mar-02 16:00N 58°00' W 154°18'6 6.4 030 / 281018.0 4.0 3.4 3.9
2015-Mar-02 15:00N 58°00' W 154°06'3 3.2 040 / 261019.8 4.6 4.0 5.1
2015-Mar-02 14:00N 58°00' W 154°12'11 2.8 040 / 271020.3 4.2 3.3 4.6
2015-Mar-02 10:00N 58°06' W 153°54'1111.2 050 / 151025.8 3.8 1.4 5.8
2015-Mar-02 09:00N 58°12' W 153°36'2613.0 070 / 171026.5 4.0 2.2 5.8
2015-Mar-02 07:00N 58°30' W 153°00'2512.5 090 / 151028.7 3.5 1.9 5.8
2015-Mar-02 05:00N 58°42' W 152°18'1413.8 150 / 111030.2 3.2 6.1
2015-Mar-02 04:00N 58°48' W 151°54'1111.1 100 / 111030.3 3.9 1.9 5.9
2015-Mar-02 03:00N 58°54' W 151°36'2211.0 120 / 91030.6 4.2 2.1 5.9
2015-Mar-02 01:00N 59°06' W 151°00'7 6.7 090 / 111031.4 5.3 2.9 5.6
2015-Mar-02 00:00N 59°12' W 151°06'0 0.0 160 / 81031.5 5.3 3.4 5.3
2015-Mar-01 23:00N 59°12' W 151°06'3 3.1 120 / 91031.5 5.6 3.3 4.8
2015-Mar-01 22:00N 59°12' W 151°00'3 3.1 220 / 61031.6 5.8 3.2 5.6
2015-Mar-01 21:00N 59°12' W 150°54'9 4.3 060 / 51031.8 4.3 2.0 5.4
2015-Mar-01 19:00N 59°18' W 150°42'13 6.7 030 / 71031.1 4.3 2.2 5.4
2015-Mar-01 17:00N 59°30' W 150°30'0 0.0 360 / 41030.6 0.3-0.7 4.7
2015-Mar-01 16:00N 59°30' W 150°30'0 0.0 010 / 81030.3 1.8 4.7
2015-Mar-01 15:00N 59°30' W 150°30'3 3.0 100 / 21030.6 -0.3-0.4 3.9
2015-Mar-01 14:00N 59°30' W 150°36'9 8.6 360 / 61030.1 1.9 1.1 4.2
2015-Mar-01 13:00N 59°24' W 150°24'0 0.0 030 / 41030.3 2.6 1.7 4.7
2015-Mar-01 12:00N 59°24' W 150°24'3 3.1 010 / 31030.3 2.6 2.5 5.3
2015-Mar-01 11:00N 59°24' W 150°30'3 3.1 030 / 41029.8 3.5 2.6 4.5
2015-Mar-01 10:00N 59°24' W 150°36'7404.1 340 / 61029.3 3.8 2.8 5.4
2015-Mar-01 09:59N 59°18' W 150°30'3 3.1 350 / 61029.4 4.2 5.5
2015-Mar-01 09:00N 59°18' W 150°36'0 0.0 340 / 51028.7 4.2 2.4 5.6
2015-Mar-01 08:59N 59°18' W 150°36'9 9.3 320 / 81028.9 3.6 5.6
2015-Mar-01 08:00N 59°18' W 150°18'3183.8 080 / 31027.8 4.7 2.4 5.6
2015-Mar-01 07:59N 59°18' W 150°12'1313.7 180 / 11028.1 4.7 5.6
2015-Mar-01 07:00N 59°30' W 150°00'0 0.0 120 / 41027.6 4.5 2.7 5.5
2015-Mar-01 06:59N 59°30' W 150°00'9 8.5 160 / 21027.9 4.5 5.5
2015-Mar-01 05:59N 59°36' W 149°48'0 0.0 360 / 31027.4 3.9 5.0
2015-Mar-01 04:00N 59°36' W 149°48'7 6.7 210 / 21025.8 4.0 2.5 5.1
2015-Mar-01 03:00N 59°30' W 149°54'9 8.5 060 / 61025.6 3.8 2.3 5.1
2015-Mar-01 02:00N 59°36' W 149°42'7 6.7 030 / 61025.6 3.1 1.9 4.9
2015-Mar-01 01:00N 59°42' W 149°36'6 6.1 340 / 71025.8 3.3 1.6 5.4
2015-Mar-01 00:00N 59°42' W 149°24'2412.0 310 / 71025.9 3.9 0.6 5.6
2015-Feb-28 22:00N 60°06' W 149°24'0 0.0 170 / 91025.7 4.4-0.8 5.3
2015-Feb-28 21:59N 60°06' W 149°24'0 0.0 170 / 91026.0 4.3 5.3
2015-Feb-28 21:00N 60°06' W 149°24'0 0.0 170 / 21026.1 3.4-0.4 5.0
2015-Feb-28 20:59N 60°06' W 149°24'12 6.1 160 / 31026.3 3.5 5.1
2015-Feb-28 19:00N 59°54' W 149°24'6360.0 290 / 61026.2 3.6-0.4 4.8
2015-Feb-28 18:59N 59°48' W 149°24'6 6.1 280 / 91026.3 3.4 4.9
2015-Feb-28 18:00N 59°42' W 149°24'9 9.1 070 / 91025.9 3.8 1.5 5.8
2015-Feb-28 17:00N 59°42' W 149°42'3181.6 350 / 81026.3 4.0 0.8 5.4
2015-Feb-28 16:59N 59°42' W 149°36'7 6.8 360 / 71026.4 3.9 5.5
2015-Feb-28 16:00N 59°48' W 149°42'6360.0 320 / 71026.9 3.1 0.4 3.9
2015-Feb-28 15:59N 59°42' W 149°42'6 3.1 340 / 61027.0 3.4 3.4
2015-Feb-28 14:00N 59°42' W 149°30'6360.0 050 / 101027.2 4.2 0.6 5.5
2015-Feb-28 13:59N 59°36' W 149°30'1413.8 050 / 111027.3 4.2 5.4
2015-Feb-28 13:00N 59°42' W 149°06'1313.5 070 / 121027.6 4.2 0.4 5.8
2015-Feb-28 12:00N 59°48' W 148°42'0 0.0 070 / 141027.9 3.7 0.1 5.6
2015-Feb-28 11:59N 59°48' W 148°42'1111.0 070 / 141028.0 3.8 5.6
2015-Feb-28 11:00N 59°54' W 148°24'3180.5 050 / 111028.2 3.4-0.6 5.6
2015-Feb-28 10:59N 59°54' W 148°18'7 3.4 040 / 131028.3 3.4 5.6
2015-Feb-28 09:00N 60°00' W 148°24'3180.0 010 / 71029.1 3.3-0.9 5.4
2015-Feb-28 08:59N 60°00' W 148°18'0 0.0 010 / 81029.4 3.0 5.4
2015-Feb-28 07:59N 60°00' W 148°18'6 6.1 360 / 81029.5 2.9 5.4
2015-Feb-28 07:00N 60°06' W 148°18'0 0.0 010 / 21029.6 2.8-2.4 5.5
2015-Feb-28 06:59N 60°06' W 148°18'0 0.0 030 / 21030.0 2.8 5.5
2015-Feb-28 06:00N 60°06' W 148°18'0 0.0 070 / 21029.5 2.5-3.2 5.4
2015-Feb-28 05:59N 60°06' W 148°18'3 3.0 240 / 31029.7 2.5 5.4
2015-Feb-28 05:00N 60°06' W 148°24'3179.5 030 / 91029.5 2.6-4.0 5.5
2015-Feb-28 04:59N 60°06' W 148°18'7 6.8 360 / 71029.7 2.5 5.5
2015-Feb-28 04:00N 60°00' W 148°24'3180.0 010 / 51029.5 3.4-2.8 5.4
2015-Feb-28 03:59N 60°00' W 148°18'6 6.1 010 / 71029.9 3.5 5.4
2015-Feb-28 03:00N 59°54' W 148°18'0 0.0 040 / 71029.4 3.9 0.1 5.6
2015-Feb-28 02:59N 59°54' W 148°18'6 6.1 040 / 61029.6 3.8 5.6
2015-Feb-28 02:00N 59°54' W 148°30'1212.0 030 / 61029.5 4.0-0.1 5.5
2015-Feb-28 01:00N 59°54' W 148°54'3180.5 120 / 41030.2 3.7 0.2 5.6
2015-Feb-28 00:59N 59°54' W 148°48'1111.0 070 / 41030.4 3.8 5.5
2015-Feb-28 00:00N 60°00' W 149°06'0 0.0 220 / 41030.9 3.6-1.3 5.0
2015-Feb-27 23:00N 60°00' W 149°06'3180.0 220 / 31031.0 3.0-1.7 4.9
2015-Feb-27 22:59N 60°00' W 149°00'7 6.8 270 / 31031.3 3.3 4.9
2015-Feb-27 22:00N 59°54' W 149°06'1313.2 190 / 31031.1 3.4-1.5 5.2
2015-Feb-27 20:59N 59°42' W 149°18'7 6.8 360 / 41030.9 3.1 5.6
2015-Feb-27 20:00N 59°48' W 149°12'6360.0 020 / 41030.6 3.6-0.4 5.6
2015-Feb-27 19:59N 59°42' W 149°12'9 8.7 010 / 71030.8 3.3 5.8
2015-Feb-27 19:00N 59°48' W 149°24'0 0.0 1030.6 1.9-3.5 5.3
2015-Feb-27 18:59N 59°48' W 149°24'6 6.1 010 / 131030.7 2.0 5.4
2015-Feb-27 18:00N 59°54' W 149°24'0 0.0 030 / 141030.2 0.7-4.9 4.8
2015-Feb-27 17:59N 59°54' W 149°24'0 0.0 020 / 181030.4 0.9 4.9
2015-Feb-27 17:00N 59°54' W 149°24'0 0.0 040 / 101030.7 1.3-5.9 5.1
2015-Feb-27 15:59N 59°54' W 149°24'6 6.1 040 / 151030.6 1.0 4.8
2015-Feb-27 15:00N 60°00' W 149°24'3180.0 340 / 131030.4 0.2-5.9 5.7
2015-Feb-27 14:59N 60°00' W 149°18'7 3.4 350 / 141030.4 0.1 5.6
2015-Feb-27 13:00N 60°06' W 149°24'6360.0 360 / 171031.1 0.3-6.2 5.2
2015-Feb-27 12:59N 60°00' W 149°24'6 3.0 350 / 181031.3 0.7 5.1
2015-Feb-27 11:00N 59°54' W 149°24'2512.4 040 / 101031.2 3.1 5.0
2015-Feb-27 09:00N 59°30' W 149°36'0 0.0 040 / 101030.7 4.5-1.6 5.5
2015-Feb-27 08:59N 59°30' W 149°36'1413.8 040 / 111030.9 4.4 5.5
2015-Feb-27 08:00N 59°24' W 150°00'3183.3 090 / 41030.9 4.4 1.6 5.8
2015-Feb-27 07:59N 59°24' W 149°54'2713.8 100 / 41031.0 4.5 5.8
2015-Feb-27 06:00N 59°12' W 150°42'7404.6 270 / 101030.8 4.7-1.3 5.7
2015-Feb-27 05:59N 59°06' W 150°36'1515.7 260 / 61031.0 4.8 5.8
2015-Feb-27 05:00N 59°06' W 151°06'7404.8 270 / 211030.7 5.0-1.4 5.9
2015-Feb-27 04:59N 59°00' W 151°00'1212.6 270 / 181031.1 5.4 5.9
2015-Feb-27 04:00N 59°00' W 151°24'3185.4 270 / 241031.6 3.9-1.1 6.0
2015-Feb-27 03:59N 59°00' W 151°18'1716.9 280 / 251031.5 4.0 5.9
2015-Feb-27 03:00N 58°54' W 151°48'3186.0 300 / 221032.7 3.4-1.4 6.3
2015-Feb-27 02:59N 58°54' W 151°42'1414.0 300 / 221032.8 3.4 6.2
2015-Feb-27 02:00N 58°48' W 152°06'1413.8 290 / 181033.7 4.0-0.4 6.3
2015-Feb-27 01:00N 58°42' W 152°30'1111.1 300 / 151034.4 4.8-1.0 6.3
2015-Feb-27 00:00N 58°36' W 152°48'1515.2 290 / 71034.7 4.0 0.9 6.1
2015-Feb-26 23:00N 58°24' W 153°06'3188.6 250 / 111035.0 4.9 1.7 5.8
2015-Feb-26 22:59N 58°24' W 153°00'1515.5 250 / 101035.1 4.5 6.0
2015-Feb-26 22:00N 58°12' W 153°18'3189.7 250 / 101035.0 4.3 0.8 5.9
2015-Feb-26 21:59N 58°12' W 153°12'1515.6 240 / 101035.2 4.3 5.8
2015-Feb-26 21:00N 58°00' W 153°30'6 6.4 260 / 111035.2 4.3 0.5 5.6
2015-Feb-26 20:00N 58°00' W 153°42'1111.3 240 / 141035.1 4.1 0.5 5.9
2015-Feb-26 19:00N 58°06' W 154°00'9 8.7 260 / 41035.0 2.8 0.1 3.3
2015-Feb-26 18:00N 58°00' W 154°12'0 0.0 310 / 21034.7 2.2 3.5
2015-Feb-26 16:00N 58°00' W 154°12'0 0.0 270 / 41034.0 2.4 3.5
2015-Feb-26 15:00N 58°00' W 154°12'22 4.4 240 / 61033.6 2.6 1.0 3.5
2015-Feb-26 10:00N 57°42' W 154°36'26 6.5 240 / 41033.8 3.3 0.5 4.8
2015-Feb-26 06:00N 57°18' W 154°54'10 9.7 340 / 161032.3 3.6 1.0 4.9
2015-Feb-26 05:00N 57°18' W 155°12'1414.3 350 / 121032.2 3.5 1.0 5.3
2015-Feb-26 04:00N 57°24' W 155°36'3 3.2 360 / 51031.7 3.8 0.8 5.4
2015-Feb-26 03:00N 57°24' W 155°30'0 0.0 010 / 81031.3 3.6 0.8 5.5
2015-Feb-26 02:00N 57°24' W 155°30'0 0.0 010 / 101031.3 3.5 0.6 5.1
2015-Feb-26 01:00N 57°24' W 155°30'3 3.2 020 / 71031.3 5.4 2.9 5.6
2015-Feb-26 00:00N 57°24' W 155°36'0 0.0 010 / 111030.8 4.0 0.9 5.2
2015-Feb-25 23:00N 57°24' W 155°36'1413.6 050 / 161030.0 4.5 0.4 5.4
2015-Feb-25 22:00N 57°12' W 155°24'1413.7 040 / 241028.8 4.8 2.4 5.5
2015-Feb-25 21:00N 57°00' W 155°12'7 6.8 030 / 201027.6 5.3 2.4 5.5
2015-Feb-25 20:00N 56°54' W 155°06'1211.5 030 / 181026.9 5.4 2.5 5.3
2015-Feb-25 19:00N 57°00' W 155°24'1111.5 030 / 251026.5 5.2 2.5 5.4
2015-Feb-25 18:00N 57°06' W 155°42'9 4.4 030 / 321025.4 5.2 2.0 5.6
2015-Feb-25 16:00N 57°00' W 155°54'22 7.4 040 / 301024.2 5.3 1.9 5.5
2015-Feb-25 13:00N 56°42' W 155°30'7 6.8 030 / 321021.2 5.0 4.3 5.6
2015-Feb-25 12:00N 56°36' W 155°24'0 0.0 010 / 291020.6 5.2 3.9 5.5
2015-Feb-25 11:58N 56°36' W 155°24'13 6.6 010 / 311012.7 5.2 5.5
2015-Feb-25 09:57N 56°36' W 155°48'6 6.3 010 / 341012.7 5.1 5.6
2015-Feb-25 09:00N 56°42' W 155°48'6120.0 030 / 321019.3 5.1 3.6 5.6
2015-Feb-25 08:57N 56°36' W 155°48'6 3.1 030 / 341012.7 5.2 5.6
2015-Feb-25 07:00N 56°42' W 155°48'7136.9 030 / 271018.7 5.2 3.7 5.8
2015-Feb-25 06:57N 56°36' W 155°42'3 3.5 030 / 241012.7 5.2 5.6
2015-Feb-25 06:00N 56°36' W 155°48'0 0.0 040 / 281018.4 5.3 3.4 5.6
2015-Feb-25 05:57N 56°36' W 155°48'6 6.3 030 / 301012.7 5.2 5.8
2015-Feb-25 05:00N 56°42' W 155°48'7136.9 020 / 301017.9 5.2 3.3 5.6
2015-Feb-25 04:57N 56°36' W 155°42'2613.3 020 / 291012.7 5.2 5.6
2015-Feb-25 03:00N 56°48' W 156°24'0 0.0 030 / 231019.5 4.9 0.1 5.3
2015-Feb-25 02:57N 56°48' W 156°24'7 7.2 030 / 291012.7 4.9 5.3
2015-Feb-25 02:00N 56°42' W 156°30'365.9 030 / 241019.2 4.7 0.5 5.1
2015-Feb-25 01:57N 56°42' W 156°24'1414.4 020 / 251012.7 4.7 5.1
2015-Feb-25 01:00N 56°30' W 156°36'0 0.0 030 / 291019.2 4.5 0.9 5.1
2015-Feb-25 00:58N 56°30' W 156°36'9 9.3 030 / 281012.7 4.5 5.1
2015-Feb-25 00:00N 56°24' W 156°48'1211.9 030 / 281019.1 4.3 0.6 5.3
2015-Feb-24 22:57N 56°12' W 156°54'1616.5 030 / 271012.7 4.4 5.4
2015-Feb-24 22:00N 56°00' W 157°12'367.1 030 / 231019.8 4.5-0.5 5.1
2015-Feb-24 21:57N 56°00' W 157°06'1212.3 030 / 261012.7 4.5 5.2
2015-Feb-24 21:00N 55°54' W 157°24'0 0.0 030 / 231019.7 4.6 1.2 5.4
2015-Feb-24 20:57N 55°54' W 157°24'1616.5 030 / 251012.7 4.5 5.4
2015-Feb-24 20:00N 55°42' W 157°42'367.6 050 / 211019.5 4.8 1.0 5.6
2015-Feb-24 19:57N 55°42' W 157°36'1212.4 050 / 221012.7 4.8 5.6
2015-Feb-24 19:00N 55°36' W 157°54'3101.7 050 / 211019.2 4.9 1.0 5.6
2015-Feb-24 18:58N 55°36' W 157°48'1615.7 050 / 231012.7 5.0 5.6
2015-Feb-24 17:58N 55°24' W 158°06'2311.5 040 / 211012.7 4.7 5.5
2015-Feb-24 16:00N 55°06' W 158°30'0 0.0 050 / 211018.7 4.2 2.0 5.4
2015-Feb-24 15:58N 55°06' W 158°30'9 9.4 040 / 211012.7 4.1 5.5
2015-Feb-24 15:00N 55°00' W 158°42'7207.6 040 / 231018.7 4.7 0.4 5.4
2015-Feb-24 14:58N 54°54' W 158°36'2512.7 050 / 231012.7 4.8 5.5
2015-Feb-24 13:00N 55°18' W 158°24'0 0.0 060 / 151020.7 4.3-0.6 5.4
2015-Feb-24 12:58N 55°18' W 158°24'9 4.6 050 / 151012.7 4.3 5.4
2015-Feb-24 11:00N 55°12' W 158°36'3 3.4 070 / 131012.7 4.3 5.5
2015-Feb-24 10:00N 55°12' W 158°42'6 6.0 090 / 131022.6 4.2-1.4 5.5
2015-Feb-24 09:00N 55°06' W 158°42'12 6.0 110 / 131012.7 4.2-1.5 5.4
2015-Feb-24 07:00N 55°18' W 158°42'7 6.9 100 / 81012.7 4.2-1.0 5.5
2015-Feb-24 06:00N 55°24' W 158°36'7 6.8 110 / 111012.7 4.2 0.2 5.5
2015-Feb-24 05:00N 55°24' W 158°48'1413.8 130 / 71012.7 4.2 5.5
2015-Feb-24 04:00N 55°12' W 159°00'3 3.4 160 / 61012.7 4.1 0.4 5.4
2015-Feb-24 03:00N 55°12' W 159°06'7 6.9 140 / 51012.7 4.3 5.4
2015-Feb-24 02:00N 55°18' W 159°00'0 0.0 170 / 61012.7 4.6 0.3 5.5
2015-Feb-24 01:00N 55°18' W 159°00'1212.0 190 / 51012.7 4.3 5.5
2015-Feb-24 00:00N 55°30' W 159°00'1413.8 230 / 41012.7 4.4-0.7 5.7
2015-Feb-23 23:00N 55°18' W 159°12'7 6.8 230 / 51012.7 4.7 0.4 5.4
2015-Feb-23 22:00N 55°18' W 159°24'9 9.1 230 / 31012.7 4.6 5.4
2015-Feb-23 21:00N 55°24' W 159°12'7 6.8 220 / 51012.7 4.5-0.2 5.4
2015-Feb-23 20:00N 55°24' W 159°24'9 9.1 200 / 71012.7 4.9 5.1
2015-Feb-23 19:00N 55°18' W 159°36'0 0.0 190 / 51019.1 4.7 1.2 5.3
2015-Feb-23 18:00N 55°18' W 159°36'6 6.0 270 / 41018.3 2.8-0.2 5.3
2015-Feb-23 17:00N 55°12' W 159°36'7 6.9 230 / 91012.7 3.6-0.9 5.3
2015-Feb-23 16:00N 55°18' W 159°42'1212.0 230 / 121012.7 2.9-0.0 5.3
2015-Feb-23 15:00N 55°30' W 159°42'1413.8 240 / 141015.8 3.6-0.0 5.3
2015-Feb-23 14:00N 55°18' W 159°54'7 6.9 230 / 141012.7 3.3 0.4 5.4
2015-Feb-23 13:00N 55°24' W 160°00'1413.8 260 / 91012.7 2.6 0.6 5.4
2015-Feb-23 12:00N 55°36' W 159°48'2713.3 230 / 91012.7 2.3 0.8 5.2
2015-Feb-23 10:00N 55°24' W 160°30'18 9.0 230 / 151012.3 2.9 0.7 5.1
2015-Feb-23 08:00N 55°18' W 161°00'1413.7 240 / 121012.7 3.4 5.1
2015-Feb-23 07:00N 55°18' W 161°24'1211.9 200 / 81012.7 2.5 0.2 4.4
2015-Feb-23 06:00N 55°12' W 161°42'9 9.1 190 / 131012.7 2.6-0.5 4.3
2015-Feb-23 05:00N 55°06' W 161°54'7 6.9 200 / 111008.4 2.7-0.0 4.3
2015-Feb-23 04:00N 55°00' W 162°00'1212.0 240 / 101012.7 2.1-0.1 4.4
2015-Feb-23 03:00N 54°54' W 162°18'1212.0 200 / 201012.7 2.9 0.2 3.8
2015-Feb-23 02:00N 54°48' W 162°36'9 9.2 210 / 201006.5 3.4 0.6 4.9
2015-Feb-23 01:00N 54°42' W 162°48'0 0.0 210 / 171012.7 3.9-1.7 4.3
2015-Feb-23 00:00N 54°42' W 162°48'7 6.9 210 / 221012.7 4.0 4.9
2015-Feb-22 23:00N 54°42' W 162°36'3 3.5 220 / 221012.7 4.2 0.8 5.0
2015-Feb-22 22:00N 54°42' W 162°42'0 0.0 240 / 211012.7 3.3-0.0 4.8
2015-Feb-22 21:00N 54°42' W 162°42'3 3.5 230 / 221012.7 4.5 0.1 5.0
2015-Feb-22 20:00N 54°42' W 162°48'7 6.9 220 / 261012.7 4.2-0.0 4.5
2015-Feb-22 19:00N 54°36' W 162°42'7 7.0 210 / 301012.7 4.0 0.4 4.9
2015-Feb-22 18:00N 54°36' W 162°30'6 6.0 220 / 221012.7 5.0 1.7 5.4
2015-Feb-22 17:00N 54°42' W 162°30'7 6.9 220 / 241000.7 4.5 1.3 5.3
2015-Feb-22 16:00N 54°36' W 162°36'7 7.0 210 / 191012.7 3.6 1.4 5.1
2015-Feb-22 15:00N 54°36' W 162°24'1212.0 200 / 21999.2 4.3 2.2 5.3
2015-Feb-22 14:00N 54°30' W 162°42'1010.5 200 / 231012.7 4.3 2.2 5.3
2015-Feb-22 13:00N 54°30' W 162°24'9 3.1 210 / 23998.1 4.9 2.2 5.5
2015-Feb-22 10:00N 54°24' W 162°36'9 9.2 170 / 201012.7 4.9 4.6 5.5
2015-Feb-22 09:00N 54°30' W 162°24'7 3.5 160 / 23996.6 4.9 3.6 5.5
2015-Feb-22 07:00N 54°30' W 162°12'1413.9 150 / 27996.5 4.7 3.3 5.6
2015-Feb-22 06:00N 54°30' W 161°48'2412.0 150 / 251012.7 5.0 5.5
2015-Feb-22 04:00N 54°42' W 161°12'1212.0 140 / 211012.7 5.3 5.1 5.6
2015-Feb-22 03:00N 54°48' W 160°54'2412.0 140 / 211012.7 5.3 5.2 5.7
2015-Feb-22 01:00N 55°00' W 160°18'0 0.0 140 / 201012.7 6.0 5.2 5.5
2015-Feb-22 00:00N 55°00' W 160°18'0 0.0 150 / 161012.7 5.8 5.4 5.5
2015-Feb-21 23:01N 55°00' W 160°18'0 0.0 150 / 201012.7 6.1 5.5
2015-Feb-21 23:00N 55°00' W 160°18'3 3.4 160 / 18998.4 6.3 4.8 5.5
2015-Feb-21 22:00N 55°00' W 160°24'7 6.9 150 / 201012.7 6.0 4.7 5.5
2015-Feb-21 21:00N 55°06' W 160°18'6 6.0 170 / 211012.7 5.0 4.7 5.4
2015-Feb-21 20:00N 55°12' W 160°18'0 0.0 160 / 24997.4 5.1 4.3 5.4
2015-Feb-21 19:00N 55°12' W 160°18'6 6.0 160 / 16997.1 4.7 4.2 5.4
2015-Feb-21 18:00N 55°06' W 160°18'7 6.9 160 / 251012.7 4.5 4.5 5.4
2015-Feb-21 17:00N 55°12' W 160°24'1010.3 170 / 21994.6 5.0 4.6 5.4
2015-Feb-21 16:00N 55°12' W 160°06'0 0.0 170 / 20993.6 5.6 5.6 5.5
2015-Feb-21 15:59N 55°12' W 160°06'7 7.0 160 / 221012.7 5.4 5.5
2015-Feb-21 15:00N 55°18' W 160°12'3204.9 180 / 14992.5 5.5 5.5 5.5
2015-Feb-21 14:59N 55°18' W 160°06'9 9.2 170 / 151012.7 5.7 5.5
2015-Feb-21 14:00N 55°24' W 160°18'7414.1 190 / 20991.2 5.6 5.6 5.5
2015-Feb-21 13:59N 55°18' W 160°12'1212.1 180 / 171012.7 5.9 5.4
2015-Feb-21 13:00N 55°24' W 160°30'3204.4 180 / 18990.1 5.4 5.2 5.4
2015-Feb-21 12:59N 55°24' W 160°24'7 7.0 180 / 181012.7 5.3 5.4
2015-Feb-21 12:00N 55°30' W 160°30'6360.0 160 / 20989.1 5.5 5.5 5.4
2015-Feb-21 11:59N 55°24' W 160°30'0 0.0 160 / 171012.7 5.5 5.3
2015-Feb-21 11:00N 55°24' W 160°30'3 3.4 160 / 21987.8 5.6 5.2 5.4
2015-Feb-21 10:00N 55°24' W 160°24'3204.4 150 / 16986.9 5.8 5.8 5.4
2015-Feb-21 09:59N 55°24' W 160°18'6 6.1 150 / 181012.7 6.0 5.4
2015-Feb-21 09:00N 55°30' W 160°18'6360.0 120 / 16986.1 6.1 6.1 5.4
2015-Feb-21 08:59N 55°24' W 160°18'7 7.0 160 / 151012.7 6.4 5.4
2015-Feb-21 08:00N 55°30' W 160°12'9 9.1 110 / 241012.7 5.7 5.7 5.4
2015-Feb-21 07:00N 55°36' W 160°00'7 6.9 100 / 231012.7 5.7 5.7 5.4
2015-Feb-21 06:00N 55°30' W 160°06'3 3.4 080 / 271012.7 7.1 6.9 5.4
2015-Feb-21 05:00N 55°30' W 160°12'0 0.0 050 / 261012.7 5.3 4.2 5.4
2015-Feb-21 04:00N 55°30' W 160°12'   050 / 211012.7 6.0 3.8 5.4

Dump ship's entire track history